createdAt,value
2023-04-11T00:03:19.602Z,100737.19
2023-04-11T00:08:41.528Z,100748.50
2023-04-11T00:14:03.426Z,100730.59
2023-04-11T00:19:25.251Z,100732.31
2023-04-11T00:24:47.073Z,100716.06
2023-04-11T00:30:09.208Z,100718.63
2023-04-11T00:35:31.063Z,100713.75
2023-04-11T00:40:52.865Z,100713.72
2023-04-11T00:46:16.045Z,100711.84
2023-04-11T00:51:38.092Z,100700.69
2023-04-11T00:57:01.072Z,100681.22
2023-04-11T01:02:22.972Z,100692.16
2023-04-11T01:07:48.676Z,100692.03
2023-04-11T01:13:11.212Z,100690.38
2023-04-11T01:18:33.260Z,100679.28
2023-04-11T01:23:55.733Z,100683.59
2023-04-11T01:29:17.617Z,100678.56
2023-04-11T01:34:40.542Z,100670.06
2023-04-11T01:40:02.694Z,100672.72
2023-04-11T01:45:26.362Z,100664.34
2023-04-11T01:50:49.451Z,100646.50
2023-04-11T01:56:11.833Z,100654.06
2023-04-11T02:01:34.447Z,100651.66
2023-04-11T02:06:56.289Z,100637.97
2023-04-11T02:12:18.116Z,100636.16
2023-04-11T02:17:39.975Z,100620.97
2023-04-11T02:23:01.869Z,100619.22
2023-04-11T02:28:23.835Z,100626.13
2023-04-11T02:33:45.690Z,100630.66
2023-04-11T02:39:07.713Z,100633.47
2023-04-11T02:44:29.537Z,100630.06
2023-04-11T02:49:51.347Z,100615.59
2023-04-11T02:55:13.189Z,100620.72
2023-04-11T03:00:35.031Z,100606.34
2023-04-11T03:05:56.851Z,100610.63
2023-04-11T03:11:18.666Z,100605.59
2023-04-11T03:16:40.514Z,100600.53
2023-04-11T03:22:02.406Z,100590.47
2023-04-11T03:27:24.220Z,100591.31
2023-04-11T03:32:46.228Z,100589.59
2023-04-11T03:38:08.054Z,100586.19
2023-04-11T03:43:29.904Z,100583.75
2023-04-11T03:48:51.747Z,100576.09
2023-04-11T03:54:13.568Z,100587.19
2023-04-11T03:59:35.414Z,100576.00
2023-04-11T04:04:57.246Z,100583.63
2023-04-11T04:10:19.094Z,100568.53
2023-04-11T04:15:40.878Z,100573.44
2023-04-11T04:21:02.726Z,100561.09
2023-04-11T04:26:24.589Z,100554.50
2023-04-11T04:31:46.465Z,100545.19
2023-04-11T04:37:08.345Z,100548.78
2023-04-11T04:42:30.283Z,100553.84
2023-04-11T04:47:52.167Z,100551.66
2023-04-11T04:53:14.012Z,100546.84
2023-04-11T04:58:35.834Z,100537.56
2023-04-11T05:03:57.894Z,100535.31
2023-04-11T05:09:20.038Z,100540.22
2023-04-11T05:14:42.281Z,100534.91
2023-04-11T05:20:04.693Z,100541.84
2023-04-11T05:25:26.543Z,100538.81
2023-04-11T05:30:48.370Z,100532.41
2023-04-11T05:36:10.613Z,100516.00
2023-04-11T05:41:32.519Z,100494.28
2023-04-11T05:46:54.318Z,100494.94
2023-04-11T05:52:16.131Z,100487.72
2023-04-11T05:57:38.003Z,100467.69
2023-04-11T06:03:00.304Z,100468.84
2023-04-11T06:08:22.395Z,100461.63
2023-04-11T06:13:44.208Z,100457.78
2023-04-11T06:19:06.061Z,100452.59
2023-04-11T06:24:38.932Z,100450.34
2023-04-11T06:30:00.812Z,100440.97
2023-04-11T06:35:22.727Z,100446.19
2023-04-11T06:40:44.523Z,100445.84
2023-04-11T06:46:06.559Z,100438.72
2023-04-11T06:51:28.495Z,100442.53
2023-04-11T06:56:50.400Z,100421.63
2023-04-11T07:02:12.272Z,100428.09
2023-04-11T07:07:34.163Z,100412.69
2023-04-11T07:12:56.020Z,100403.22
2023-04-11T07:18:17.889Z,100411.31
2023-04-11T07:23:40.253Z,100399.38
2023-04-11T07:29:02.072Z,100397.28
2023-04-11T07:34:24.101Z,100379.41
2023-04-11T07:39:45.897Z,100373.34
2023-04-11T07:45:08.382Z,100358.72
2023-04-11T07:50:30.177Z,100361.13
2023-04-11T07:55:51.997Z,100336.94
2023-04-11T08:01:24.559Z,100351.84
2023-04-11T08:06:46.356Z,100345.09
2023-04-11T08:12:09.232Z,100337.69
2023-04-11T08:17:31.150Z,100327.09
2023-04-11T08:22:53.040Z,100336.53
2023-04-11T08:28:14.877Z,100332.28
2023-04-11T08:33:36.730Z,100325.19
2023-04-11T08:38:58.563Z,100330.44
2023-04-11T08:44:20.456Z,100318.09
2023-04-11T08:49:42.276Z,100297.25
2023-04-11T08:55:04.314Z,100279.16
2023-04-11T09:00:27.262Z,100270.59
2023-04-11T09:05:49.130Z,100269.94
2023-04-11T09:11:10.929Z,100262.78
2023-04-11T09:16:32.862Z,100252.56
2023-04-11T09:21:57.011Z,100246.81
2023-04-11T09:27:19.000Z,100243.88
2023-04-11T09:32:40.856Z,100215.22
2023-04-11T09:38:02.736Z,100214.09
2023-04-11T09:43:24.769Z,100200.50
2023-04-11T09:48:48.092Z,100192.50
2023-04-11T09:54:10.679Z,100176.97
2023-04-11T09:59:35.515Z,100197.69
2023-04-11T10:04:58.354Z,100166.59
2023-04-11T10:10:24.138Z,100150.41
2023-04-11T10:16:05.557Z,100144.09
2023-04-11T10:21:30.232Z,100155.19
2023-04-11T10:26:54.674Z,100146.63
2023-04-11T10:32:16.448Z,100141.41
2023-04-11T10:37:38.279Z,100145.25
2023-04-11T10:43:19.461Z,100135.78
2023-04-11T10:49:01.394Z,100119.00
2023-04-11T10:54:26.796Z,100116.81
2023-04-11T10:59:51.684Z,100111.03
2023-04-11T11:05:17.513Z,100115.63
2023-04-11T11:10:45.224Z,100108.59
2023-04-11T11:16:08.956Z,100109.28
2023-04-11T11:21:31.725Z,100086.56
2023-04-11T11:26:54.918Z,100091.47
2023-04-11T11:32:24.737Z,100083.66
2023-04-11T11:37:46.792Z,100083.22
2023-04-11T11:43:08.672Z,100074.81
2023-04-11T11:48:30.495Z,100066.50
2023-04-11T11:54:05.907Z,100068.50
2023-04-11T11:59:27.989Z,100053.03
2023-04-11T12:04:50.261Z,100061.50
2023-04-11T12:10:17.156Z,100053.13
2023-04-11T12:15:40.212Z,100050.03
2023-04-11T12:21:02.087Z,100036.00
2023-04-11T12:26:23.945Z,100039.31
2023-04-11T12:31:46.095Z,100021.69
2023-04-11T12:37:08.108Z,100017.09
2023-04-11T12:42:29.935Z,100015.13
2023-04-11T12:47:52.294Z,100008.31
2023-04-11T12:53:14.259Z,100006.81
2023-04-11T12:58:36.140Z,99992.13
2023-04-11T13:03:58.135Z,99980.19
2023-04-11T13:09:20.126Z,99989.78
2023-04-11T13:14:42.026Z,99962.06
2023-04-11T13:20:04.665Z,99974.34
2023-04-11T13:25:26.562Z,99969.00
2023-04-11T13:30:48.468Z,99959.97
2023-04-11T13:36:10.919Z,99938.25
2023-04-11T13:41:32.871Z,99937.47
2023-04-11T13:46:54.695Z,99936.50
2023-04-11T13:52:16.547Z,99927.84
2023-04-11T13:57:38.363Z,99922.22
2023-04-11T14:03:00.460Z,99926.53
2023-04-11T14:08:22.327Z,99904.28
2023-04-11T14:13:44.116Z,99915.72
2023-04-11T14:19:05.921Z,99905.03
2023-04-11T14:24:28.648Z,99907.34
2023-04-11T14:29:50.453Z,99904.84
2023-04-11T14:35:12.304Z,99899.22
2023-04-11T14:40:34.229Z,99890.81
2023-04-11T14:45:56.438Z,99887.41
2023-04-11T14:51:18.283Z,99892.28
2023-04-11T14:56:40.145Z,99878.22
2023-04-11T15:02:02.071Z,99887.34
2023-04-11T15:07:23.914Z,99877.88
2023-04-11T15:12:46.097Z,99866.41
2023-04-11T15:18:37.077Z,99866.25
2023-04-11T15:23:58.975Z,99864.84
2023-04-11T15:29:20.864Z,99858.13
2023-04-11T15:34:42.753Z,99852.19
2023-04-11T15:40:05.007Z,99848.38
2023-04-11T15:45:26.850Z,99838.16
2023-04-11T15:50:48.809Z,99823.28
2023-04-11T15:56:11.153Z,99824.00
2023-04-11T16:01:33.186Z,99824.84
2023-04-11T16:06:55.126Z,99825.94
2023-04-11T16:12:18.677Z,99821.69
2023-04-11T16:17:40.626Z,99813.00
2023-04-11T16:23:02.566Z,99815.91
2023-04-11T16:28:24.518Z,99797.16
2023-04-11T16:33:46.336Z,99809.00
2023-04-11T16:39:08.192Z,99793.31
2023-04-11T16:44:30.018Z,99809.34
2023-04-11T16:49:52.360Z,99805.41
2023-04-11T16:55:14.294Z,99802.16
2023-04-11T17:00:36.256Z,99798.06
2023-04-11T17:05:58.231Z,99784.72
2023-04-11T17:11:20.072Z,99791.91
2023-04-11T17:16:42.351Z,99787.97
2023-04-11T17:22:04.144Z,99794.09
2023-04-11T17:27:25.937Z,99792.09
2023-04-11T17:32:48.436Z,99799.31
2023-04-11T17:38:10.677Z,99791.16
2023-04-11T17:43:32.921Z,99792.22
2023-04-11T17:48:54.797Z,99802.16
2023-04-11T18:00:36.748Z,99806.34
2023-04-11T18:06:03.554Z,99797.78
2023-04-11T18:11:25.488Z,99807.69
2023-04-11T18:16:47.352Z,99809.59
2023-04-11T18:22:09.298Z,99822.13
2023-04-11T18:27:32.294Z,99819.47
2023-04-11T18:32:54.276Z,99818.53
2023-04-11T18:38:16.202Z,99825.84
2023-04-11T18:43:38.922Z,99821.41
2023-04-11T18:49:01.215Z,99832.00
2023-04-11T18:54:23.037Z,99823.25
2023-04-11T18:59:46.379Z,99823.13
2023-04-11T19:05:11.202Z,99808.50
2023-04-11T19:10:33.286Z,99821.88
2023-04-11T19:15:55.378Z,99814.53
2023-04-11T19:21:17.236Z,99816.03
2023-04-11T19:26:39.076Z,99813.13
2023-04-11T19:32:01.080Z,99804.44
2023-04-11T19:37:22.953Z,99813.63
2023-04-11T19:42:45.228Z,99807.97
2023-04-11T19:48:07.102Z,99794.28
2023-04-11T19:53:29.041Z,99818.09
2023-04-11T19:58:50.955Z,99815.66
2023-04-11T20:04:12.970Z,99818.81
2023-04-11T20:09:34.887Z,99807.56
2023-04-11T20:14:56.781Z,99811.56
2023-04-11T20:20:19.928Z,99818.56
2023-04-11T20:25:42.363Z,99819.00
2023-04-11T20:31:04.388Z,99808.25
2023-04-11T20:36:26.368Z,99813.47
2023-04-11T20:41:48.514Z,99798.50
2023-04-11T20:47:10.345Z,99814.41
2023-04-11T20:52:32.314Z,99813.72
2023-04-11T20:57:54.200Z,99814.31
2023-04-11T21:03:16.172Z,99803.81
2023-04-11T21:08:38.122Z,99802.41
2023-04-11T21:13:59.957Z,99817.00
2023-04-11T21:19:21.805Z,99823.25
2023-04-11T21:24:43.639Z,99823.78
2023-04-11T21:30:06.037Z,99814.34
2023-04-11T21:35:28.117Z,99805.97
2023-04-11T21:40:49.921Z,99807.13
2023-04-11T21:46:11.804Z,99797.53
2023-04-11T21:51:33.620Z,99804.53
2023-04-11T21:56:55.399Z,99804.66
2023-04-11T22:02:17.282Z,99793.19
2023-04-11T22:07:39.353Z,99803.28
2023-04-11T22:13:01.262Z,99796.31
2023-04-11T22:18:23.072Z,99789.59
2023-04-11T22:23:51.950Z,99799.06
2023-04-11T22:29:13.845Z,99801.81
2023-04-11T22:34:35.781Z,99797.72
2023-04-11T22:39:57.649Z,99802.94
2023-04-11T22:45:20.716Z,99786.66
2023-04-11T22:50:43.410Z,99775.03
2023-04-11T22:56:05.557Z,99790.16
2023-04-11T23:01:27.481Z,99780.97
2023-04-11T23:06:50.549Z,99771.88
2023-04-11T23:12:12.504Z,99769.94
2023-04-11T23:17:34.321Z,99772.44
2023-04-11T23:22:56.118Z,99780.06
2023-04-11T23:28:17.921Z,99766.50
2023-04-11T23:33:39.734Z,99781.88
2023-04-11T23:39:01.548Z,99786.38
2023-04-11T23:44:23.475Z,99780.91
2023-04-11T23:49:45.313Z,99778.09
2023-04-11T23:55:07.893Z,99762.53
